createdAt,value
2018-03-06T00:01:47.400Z,79.90
2018-03-06T00:04:15.005Z,80.10
2018-03-06T00:06:42.790Z,79.80
2018-03-06T00:09:10.321Z,80.20
2018-03-06T00:11:37.902Z,80.40
2018-03-06T00:14:06.004Z,80.50
2018-03-06T00:16:35.574Z,80.40
2018-03-06T00:19:03.477Z,81.30
2018-03-06T00:21:31.014Z,80.70
2018-03-06T00:23:58.581Z,80.90
2018-03-06T00:26:26.125Z,80.60
2018-03-06T00:28:53.695Z,80.60
2018-03-06T00:31:21.230Z,81.20
2018-03-06T00:33:48.761Z,81.50
2018-03-06T00:36:18.266Z,81.90
2018-03-06T00:38:45.802Z,82.30
2018-03-06T00:41:13.359Z,82.10
2018-03-06T00:43:40.914Z,81.70
2018-03-06T00:46:08.453Z,81.70
2018-03-06T00:48:36.012Z,82.00
2018-03-06T00:51:03.551Z,82.20
2018-03-06T00:53:33.299Z,82.40
2018-03-06T00:56:00.841Z,81.90
2018-03-06T00:58:30.479Z,81.70
2018-03-06T01:00:59.070Z,81.80
2018-03-06T01:03:26.606Z,82.30
2018-03-06T01:05:54.226Z,82.30
2018-03-06T01:08:22.865Z,82.90
2018-03-06T01:10:50.365Z,82.90
2018-03-06T01:13:17.930Z,82.60
2018-03-06T01:15:45.471Z,82.00
2018-03-06T01:18:13.795Z,82.30
2018-03-06T01:20:41.354Z,82.20
2018-03-06T01:23:08.958Z,81.90
2018-03-06T01:25:36.473Z,81.80
2018-03-06T01:28:04.012Z,81.30
2018-03-06T01:30:32.574Z,81.60
2018-03-06T01:33:00.891Z,81.80
2018-03-06T01:35:29.410Z,81.80
2018-03-06T01:38:00.495Z,81.90
2018-03-06T01:40:28.447Z,81.70
2018-03-06T01:42:55.989Z,82.20
2018-03-06T01:45:23.529Z,81.80
2018-03-06T01:47:51.099Z,81.80
2018-03-06T01:50:19.602Z,81.40
2018-03-06T01:52:47.517Z,81.80
2018-03-06T01:55:15.054Z,81.90
2018-03-06T01:57:42.625Z,82.10
2018-03-06T02:00:12.265Z,82.60
2018-03-06T02:07:45.239Z,82.40
2018-03-06T02:10:14.665Z,82.20
2018-03-06T02:12:43.222Z,82.30
2018-03-06T02:15:10.778Z,82.00
2018-03-06T02:17:38.313Z,81.80
2018-03-06T02:20:06.950Z,82.10
2018-03-06T02:22:34.501Z,82.10
2018-03-06T02:25:03.998Z,81.80
2018-03-06T02:27:33.223Z,82.10
2018-03-06T02:30:00.766Z,82.60
2018-03-06T02:32:29.762Z,82.00
2018-03-06T02:34:57.294Z,82.60
2018-03-06T02:37:24.863Z,82.20
2018-03-06T02:39:52.400Z,82.40
2018-03-06T02:42:19.973Z,82.40
2018-03-06T02:44:47.518Z,82.80
2018-03-06T02:47:15.079Z,83.10
2018-03-06T02:49:42.640Z,83.20
2018-03-06T02:52:10.183Z,83.00
2018-03-06T02:54:38.511Z,83.50
2018-03-06T02:57:06.046Z,83.40
2018-03-06T02:59:33.620Z,83.20
2018-03-06T03:02:02.131Z,83.40
2018-03-06T03:04:30.462Z,83.30
2018-03-06T03:06:59.806Z,83.20
2018-03-06T03:12:00.331Z,83.30
2018-03-06T03:14:29.838Z,85.00
2018-03-06T03:19:30.096Z,84.20
2018-03-06T03:21:59.641Z,84.20
2018-03-06T03:24:27.166Z,83.80
2018-03-06T03:26:54.703Z,83.80
2018-03-06T03:29:22.280Z,83.90
2018-03-06T03:31:50.770Z,83.60
2018-03-06T03:34:18.790Z,84.10
2018-03-06T03:36:46.332Z,84.40
2018-03-06T03:39:13.922Z,83.40
2018-03-06T03:41:41.458Z,84.20
2018-03-06T03:44:09.025Z,84.00
2018-03-06T03:46:36.711Z,84.00
2018-03-06T03:49:05.212Z,84.30
2018-03-06T03:51:32.785Z,84.20
2018-03-06T03:54:01.111Z,83.60
2018-03-06T03:56:28.672Z,83.50
2018-03-06T03:58:56.201Z,83.40
2018-03-06T04:01:23.762Z,82.90
2018-03-06T04:03:51.307Z,83.60
2018-03-06T04:06:18.843Z,83.30
2018-03-06T04:08:46.403Z,83.60
2018-03-06T04:11:13.931Z,83.60
2018-03-06T04:13:41.508Z,83.20
2018-03-06T04:16:09.973Z,83.10
2018-03-06T04:21:14.261Z,84.10
2018-03-06T04:23:42.592Z,84.30
2018-03-06T04:26:10.123Z,84.30
2018-03-06T04:28:37.666Z,86.00
2018-03-06T04:31:05.234Z,85.50
2018-03-06T04:36:10.238Z,85.10
2018-03-06T04:38:37.791Z,85.30
2018-03-06T04:41:05.367Z,85.50
2018-03-06T04:43:32.916Z,84.90
2018-03-06T04:46:00.514Z,85.10
2018-03-06T04:48:28.051Z,84.30
2018-03-06T04:50:57.510Z,84.40
2018-03-06T04:53:25.069Z,84.40
2018-03-06T04:55:52.618Z,83.50
2018-03-06T04:58:20.190Z,84.20
2018-03-06T05:00:47.962Z,83.70
2018-03-06T05:03:15.534Z,84.10
2018-03-06T05:05:43.075Z,84.10
2018-03-06T05:08:10.664Z,84.40
2018-03-06T05:10:38.235Z,84.60
2018-03-06T05:13:06.556Z,84.40
2018-03-06T05:15:37.062Z,84.40
2018-03-06T05:18:06.681Z,84.90
2018-03-06T05:20:34.299Z,85.40
2018-03-06T05:23:05.248Z,84.40
2018-03-06T05:25:35.291Z,84.30
2018-03-06T05:28:05.508Z,85.50
2018-03-06T05:30:34.043Z,84.70
2018-03-06T05:33:01.574Z,84.40
2018-03-06T05:35:29.168Z,85.50
2018-03-06T05:37:57.514Z,85.20
2018-03-06T05:40:25.054Z,85.20
2018-03-06T05:42:52.618Z,85.20
2018-03-06T05:45:20.170Z,84.70
2018-03-06T05:47:47.767Z,84.80
2018-03-06T05:50:16.101Z,85.20
2018-03-06T05:52:43.674Z,85.20
2018-03-06T05:55:11.298Z,85.00
2018-03-06T05:57:38.845Z,85.30
2018-03-06T06:00:06.422Z,85.40
2018-03-06T06:02:33.960Z,85.40
2018-03-06T06:05:01.531Z,85.20
2018-03-06T06:07:29.085Z,84.50
2018-03-06T06:09:56.642Z,84.60
2018-03-06T06:12:24.170Z,84.60
2018-03-06T06:14:51.729Z,84.40
2018-03-06T06:17:19.248Z,85.00
2018-03-06T06:19:46.767Z,84.80
2018-03-06T06:22:14.323Z,84.60
2018-03-06T06:24:41.843Z,84.50
2018-03-06T06:27:09.412Z,85.00
2018-03-06T06:29:36.922Z,85.40
2018-03-06T06:32:04.482Z,85.40
2018-03-06T06:34:32.003Z,85.80
2018-03-06T06:36:59.538Z,84.90
2018-03-06T06:39:27.114Z,84.70
2018-03-06T06:41:54.798Z,84.70
2018-03-06T06:44:22.354Z,85.00
2018-03-06T06:46:49.933Z,84.50
2018-03-06T06:49:18.263Z,84.10
2018-03-06T06:51:45.799Z,84.00
2018-03-06T06:54:14.122Z,84.00
2018-03-06T06:56:41.646Z,83.90
2018-03-06T06:59:09.191Z,83.70
2018-03-06T07:01:36.715Z,84.30
2018-03-06T07:04:04.232Z,84.30
2018-03-06T07:06:32.715Z,84.10
2018-03-06T07:09:00.235Z,84.30
2018-03-06T07:11:32.443Z,84.50
2018-03-06T07:13:59.974Z,84.40
2018-03-06T07:16:27.519Z,84.20
2018-03-06T07:18:55.801Z,84.40
2018-03-06T07:21:23.462Z,84.10
2018-03-06T07:23:51.749Z,83.80
2018-03-06T07:26:20.034Z,83.50
2018-03-06T07:28:49.554Z,83.40
2018-03-06T07:31:17.830Z,82.40
2018-03-06T07:33:45.373Z,82.30
2018-03-06T07:36:12.927Z,82.70
2018-03-06T07:38:40.473Z,81.60
2018-03-06T07:41:08.785Z,80.00
2018-03-06T07:43:36.343Z,80.70
2018-03-06T07:46:03.890Z,79.90
2018-03-06T07:48:31.410Z,79.90
2018-03-06T07:50:58.958Z,78.20
2018-03-06T07:53:26.489Z,77.60
2018-03-06T07:55:54.637Z,78.80
2018-03-06T07:58:22.163Z,77.90
2018-03-06T08:00:50.475Z,77.90
2018-03-06T08:03:18.019Z,77.90
2018-03-06T08:05:46.504Z,77.10
2018-03-06T08:08:16.016Z,76.70
2018-03-06T08:10:43.562Z,75.20
2018-03-06T08:13:12.078Z,74.80
2018-03-06T08:15:39.610Z,73.10
2018-03-06T08:18:07.138Z,73.40
2018-03-06T08:20:34.724Z,74.10
2018-03-06T08:23:02.256Z,74.60
2018-03-06T08:25:29.824Z,74.20
2018-03-06T08:27:57.342Z,74.00
2018-03-06T08:30:24.894Z,73.50
2018-03-06T08:32:53.374Z,72.30
2018-03-06T08:35:20.936Z,71.70
2018-03-06T08:37:48.496Z,71.50
2018-03-06T08:40:16.038Z,71.10
2018-03-06T08:42:43.583Z,70.70
2018-03-06T08:45:11.194Z,70.10
2018-03-06T08:47:41.466Z,69.20
2018-03-06T08:50:10.010Z,69.20
2018-03-06T08:52:37.530Z,68.20
2018-03-06T08:55:05.598Z,66.70
2018-03-06T08:57:33.126Z,66.30
2018-03-06T09:00:00.677Z,65.30
2018-03-06T09:02:28.193Z,64.60
2018-03-06T09:04:55.732Z,64.20
2018-03-06T09:07:23.258Z,64.60
2018-03-06T09:09:51.578Z,60.10
2018-03-06T09:12:19.139Z,60.10
2018-03-06T09:14:46.662Z,60.30
2018-03-06T09:17:14.216Z,60.40
2018-03-06T09:19:41.739Z,61.90
2018-03-06T09:22:09.361Z,63.90
2018-03-06T09:24:36.891Z,65.60
2018-03-06T09:27:04.453Z,63.90
2018-03-06T09:29:31.985Z,61.90
2018-03-06T09:32:00.411Z,61.30
2018-03-06T09:34:27.959Z,61.30
2018-03-06T09:36:55.502Z,60.80
2018-03-06T09:39:23.830Z,60.70
2018-03-06T09:41:51.366Z,60.70
2018-03-06T09:44:18.917Z,61.10
2018-03-06T09:46:46.450Z,62.50
2018-03-06T09:49:14.785Z,61.30
2018-03-06T09:51:42.316Z,61.40
2018-03-06T09:54:09.858Z,62.40
2018-03-06T09:56:37.406Z,64.10
2018-03-06T09:59:05.706Z,65.50
2018-03-06T10:01:33.271Z,65.40
2018-03-06T10:04:00.820Z,64.80
2018-03-06T10:06:28.393Z,64.00
2018-03-06T10:08:55.926Z,62.70
2018-03-06T10:11:23.457Z,63.90
2018-03-06T10:13:51.010Z,62.60
2018-03-06T10:16:18.552Z,62.30
2018-03-06T10:18:46.107Z,62.40
2018-03-06T10:21:13.640Z,62.70
2018-03-06T10:23:41.191Z,62.40
2018-03-06T10:26:09.733Z,62.40
2018-03-06T10:28:37.294Z,61.50
2018-03-06T10:31:05.593Z,59.20
2018-03-06T10:33:33.910Z,59.80
2018-03-06T10:36:02.411Z,59.70
2018-03-06T10:38:29.967Z,60.80
2018-03-06T10:40:57.502Z,62.40
2018-03-06T10:43:25.042Z,61.30
2018-03-06T10:45:52.610Z,59.20
2018-03-06T10:48:20.134Z,58.30
2018-03-06T10:50:47.689Z,58.50
2018-03-06T10:53:16.040Z,59.10
2018-03-06T10:55:43.567Z,58.90
2018-03-06T10:58:11.103Z,59.70
2018-03-06T11:00:44.302Z,59.40
2018-03-06T11:03:11.822Z,59.50
2018-03-06T11:05:39.370Z,60.00
2018-03-06T11:08:06.908Z,61.90
2018-03-06T11:10:34.439Z,61.70
2018-03-06T11:13:02.007Z,63.80
2018-03-06T11:15:29.535Z,65.30
2018-03-06T11:17:57.086Z,66.60
2018-03-06T11:20:24.620Z,67.10
2018-03-06T11:22:52.170Z,66.80
2018-03-06T11:25:19.718Z,66.90
2018-03-06T11:27:47.323Z,68.10
2018-03-06T11:30:15.826Z,67.70
2018-03-06T11:32:43.354Z,66.30
2018-03-06T11:35:11.068Z,65.10
2018-03-06T11:37:39.550Z,65.80
2018-03-06T11:40:07.123Z,66.60
2018-03-06T11:42:34.650Z,64.00
2018-03-06T11:45:02.216Z,62.40
2018-03-06T11:47:29.745Z,61.60
2018-03-06T11:49:58.066Z,59.60
2018-03-06T11:52:25.590Z,59.40
2018-03-06T11:54:53.953Z,58.30
2018-03-06T11:57:31.602Z,58.30
2018-03-06T11:59:59.174Z,58.20
2018-03-06T12:02:26.720Z,58.00
2018-03-06T12:04:54.245Z,57.50
2018-03-06T12:07:21.798Z,57.90
2018-03-06T12:09:49.336Z,58.50
2018-03-06T12:12:16.913Z,57.40
2018-03-06T12:14:44.472Z,57.10
2018-03-06T12:17:12.011Z,56.40
2018-03-06T12:19:39.594Z,58.30
2018-03-06T12:22:07.138Z,61.70
2018-03-06T12:24:37.417Z,62.40
2018-03-06T12:27:05.844Z,62.40
2018-03-06T12:29:33.393Z,62.90
2018-03-06T12:32:00.934Z,63.30
2018-03-06T12:34:28.495Z,62.40
2018-03-06T12:36:56.059Z,60.60
2018-03-06T12:39:23.628Z,60.30
2018-03-06T12:41:51.153Z,61.90
2018-03-06T12:44:19.259Z,61.30
2018-03-06T12:46:47.598Z,63.70
2018-03-06T12:49:16.077Z,63.70
2018-03-06T12:51:43.698Z,61.60
2018-03-06T12:54:11.235Z,60.20
2018-03-06T12:56:38.794Z,61.90
2018-03-06T12:59:07.103Z,63.50
2018-03-06T13:01:34.694Z,62.80
2018-03-06T13:04:02.218Z,63.30
2018-03-06T13:06:30.671Z,65.40
2018-03-06T13:08:58.970Z,65.60
2018-03-06T13:11:28.225Z,66.60
2018-03-06T13:13:55.777Z,66.60
2018-03-06T13:16:23.682Z,63.60
2018-03-06T13:18:52.635Z,62.80
2018-03-06T13:21:20.157Z,62.90
2018-03-06T13:23:47.714Z,63.20
2018-03-06T13:26:15.233Z,60.20
2018-03-06T13:28:42.932Z,59.70
2018-03-06T13:31:10.454Z,58.90
2018-03-06T13:33:38.000Z,61.60
2018-03-06T13:36:05.550Z,60.50
2018-03-06T13:38:33.067Z,60.00
2018-03-06T13:41:00.626Z,59.00
2018-03-06T13:43:28.157Z,57.90
2018-03-06T13:45:55.727Z,56.70
2018-03-06T13:48:23.278Z,56.80
2018-03-06T13:50:52.778Z,56.40
2018-03-06T13:53:20.290Z,56.20
2018-03-06T13:55:47.851Z,56.80
2018-03-06T13:58:15.372Z,56.90
2018-03-06T14:00:42.917Z,55.80
2018-03-06T14:03:11.240Z,56.50
2018-03-06T14:05:38.800Z,56.50
2018-03-06T14:08:06.359Z,56.20
2018-03-06T14:10:33.898Z,55.50
2018-03-06T14:13:01.458Z,55.10
2018-03-06T14:15:28.994Z,54.90
2018-03-06T14:17:56.557Z,54.20
2018-03-06T14:20:24.849Z,55.00
2018-03-06T14:22:52.408Z,54.90
2018-03-06T14:25:20.892Z,55.00
2018-03-06T14:27:48.445Z,54.50
2018-03-06T14:30:15.970Z,54.20
2018-03-06T14:32:43.498Z,54.00
2018-03-06T14:35:11.043Z,54.10
2018-03-06T14:37:38.558Z,55.00
2018-03-06T14:40:06.973Z,56.20
2018-03-06T14:42:34.550Z,56.20
2018-03-06T14:45:02.108Z,56.90
2018-03-06T14:47:29.626Z,57.40
2018-03-06T14:49:57.963Z,58.90
2018-03-06T14:52:25.500Z,58.90
2018-03-06T14:54:53.077Z,58.70
2018-03-06T14:57:20.599Z,58.60
2018-03-06T14:59:48.119Z,58.80
2018-03-06T15:02:15.679Z,59.50
2018-03-06T15:04:43.203Z,60.70
2018-03-06T15:07:12.702Z,60.80
2018-03-06T15:09:40.214Z,62.70
2018-03-06T15:12:08.538Z,62.50
2018-03-06T15:14:36.059Z,62.50
2018-03-06T15:17:03.612Z,62.80
2018-03-06T15:19:31.142Z,63.00
2018-03-06T15:21:58.701Z,62.90
2018-03-06T15:24:26.266Z,62.90
2018-03-06T15:26:53.815Z,62.70
2018-03-06T15:29:21.334Z,62.00
2018-03-06T15:31:48.854Z,63.20
2018-03-06T15:34:17.168Z,61.90
2018-03-06T15:36:44.689Z,61.90
2018-03-06T15:39:12.242Z,62.60
2018-03-06T15:41:40.760Z,63.90
2018-03-06T15:44:08.317Z,63.50
2018-03-06T15:46:35.834Z,62.50
2018-03-06T15:49:03.382Z,62.90
2018-03-06T15:51:30.954Z,62.70
2018-03-06T15:53:58.487Z,63.00
2018-03-06T15:56:26.031Z,63.00
2018-03-06T15:58:53.571Z,62.60
2018-03-06T16:01:21.126Z,63.90
2018-03-06T16:03:49.410Z,65.60
2018-03-06T16:06:16.957Z,65.60
2018-03-06T16:08:44.489Z,66.00
2018-03-06T16:11:12.046Z,67.20
2018-03-06T16:13:39.573Z,68.10
2018-03-06T16:16:07.098Z,67.70
2018-03-06T16:18:34.651Z,68.80
2018-03-06T16:21:02.183Z,68.60
2018-03-06T16:23:30.489Z,70.20
2018-03-06T16:25:58.015Z,70.10
2018-03-06T16:28:25.563Z,70.40
2018-03-06T16:30:53.098Z,71.00
2018-03-06T16:33:20.658Z,71.60
2018-03-06T16:35:48.187Z,72.60
2018-03-06T16:38:16.677Z,72.30
2018-03-06T16:40:44.230Z,73.50
2018-03-06T16:43:11.758Z,74.00
2018-03-06T16:45:41.097Z,74.20
2018-03-06T16:48:08.646Z,74.10
2018-03-06T16:50:36.194Z,73.90
2018-03-06T16:53:03.770Z,73.80
2018-03-06T16:55:31.434Z,74.00
2018-03-06T16:57:58.960Z,74.60
2018-03-06T17:00:26.487Z,74.30
2018-03-06T17:02:54.024Z,75.50
2018-03-06T17:05:21.546Z,75.80
2018-03-06T17:07:49.091Z,75.50
2018-03-06T17:10:16.680Z,76.50
2018-03-06T17:12:44.260Z,77.60
2018-03-06T17:15:11.789Z,78.70
2018-03-06T17:17:39.351Z,79.30
2018-03-06T17:20:06.876Z,79.50
2018-03-06T17:22:36.452Z,80.00
2018-03-06T17:25:04.910Z,80.50
2018-03-06T17:27:32.443Z,80.90
2018-03-06T17:30:00.011Z,81.10
2018-03-06T17:32:27.538Z,81.40
2018-03-06T17:34:55.085Z,81.10
2018-03-06T17:37:22.653Z,81.10
2018-03-06T17:39:52.310Z,80.70
2018-03-06T17:42:19.835Z,80.80
2018-03-06T17:44:47.383Z,80.40
2018-03-06T17:47:14.920Z,79.80
2018-03-06T17:49:42.546Z,79.40
2018-03-06T17:52:10.067Z,79.70
2018-03-06T17:54:38.346Z,79.00
2018-03-06T17:57:06.658Z,79.00
2018-03-06T17:59:34.286Z,79.00
2018-03-06T18:02:02.808Z,79.50
2018-03-06T18:04:30.335Z,79.70
2018-03-06T18:06:58.650Z,80.30
2018-03-06T18:09:26.180Z,80.30
2018-03-06T18:11:53.742Z,80.40
2018-03-06T18:14:21.267Z,80.10
2018-03-06T18:16:49.595Z,82.00
2018-03-06T18:19:17.110Z,82.00
2018-03-06T18:21:44.626Z,82.30
2018-03-06T18:24:14.103Z,81.70
2018-03-06T18:26:41.619Z,81.80
2018-03-06T18:29:09.193Z,81.40
2018-03-06T18:31:36.699Z,82.40
2018-03-06T18:34:04.243Z,82.50
2018-03-06T18:36:31.766Z,82.30
2018-03-06T18:39:00.082Z,81.90
2018-03-06T18:41:27.598Z,81.90
2018-03-06T18:43:55.147Z,82.20
2018-03-06T18:46:22.670Z,81.50
2018-03-06T18:48:50.187Z,81.80
2018-03-06T18:51:18.498Z,82.80
2018-03-06T18:53:46.015Z,82.80
2018-03-06T18:56:14.334Z,82.20
2018-03-06T18:58:41.852Z,82.10
2018-03-06T19:04:29.673Z,83.60
2018-03-06T19:07:13.986Z,84.30
2018-03-06T19:09:41.509Z,84.10
2018-03-06T19:12:09.058Z,84.10
2018-03-06T19:14:36.575Z,83.80
2018-03-06T19:17:04.089Z,83.90
2018-03-06T19:19:32.402Z,82.80
2018-03-06T19:21:59.935Z,82.80
2018-03-06T19:24:27.485Z,82.30
2018-03-06T19:26:54.998Z,82.10
2018-03-06T19:29:22.533Z,82.50
2018-03-06T19:31:51.007Z,83.40
2018-03-06T19:34:19.140Z,83.50
2018-03-06T19:36:46.658Z,84.90
2018-03-06T19:39:14.178Z,84.30
2018-03-06T19:41:42.664Z,84.70
2018-03-06T19:44:10.188Z,85.00
2018-03-06T19:46:37.742Z,84.70
2018-03-06T19:49:05.262Z,85.50
2018-03-06T19:51:32.852Z,85.30
2018-03-06T19:54:00.378Z,84.80
2018-03-06T19:56:27.929Z,84.40
2018-03-06T19:58:55.492Z,84.30
2018-03-06T20:01:23.013Z,84.20
2018-03-06T20:03:50.559Z,85.30
2018-03-06T20:06:18.086Z,88.90
2018-03-06T20:08:45.638Z,89.00
2018-03-06T20:11:13.153Z,88.30
2018-03-06T20:13:41.481Z,88.70
2018-03-06T20:16:09.056Z,88.70
2018-03-06T20:18:36.615Z,90.00
2018-03-06T20:21:04.131Z,90.00
2018-03-06T20:23:31.684Z,89.50
2018-03-06T20:26:00.134Z,90.00
2018-03-06T20:28:27.689Z,90.70
2018-03-06T20:31:00.753Z,90.40
2018-03-06T20:33:28.304Z,89.50
2018-03-06T20:35:56.857Z,89.30
2018-03-06T20:38:30.139Z,88.60
2018-03-06T20:40:57.662Z,89.60
2018-03-06T20:43:25.970Z,90.30
2018-03-06T20:46:00.900Z,90.20
2018-03-06T20:48:29.213Z,90.50
2018-03-06T20:50:56.763Z,90.40
2018-03-06T20:53:30.010Z,90.40
2018-03-06T20:55:59.527Z,91.10
2018-03-06T20:58:27.042Z,91.00
2018-03-06T21:00:54.609Z,91.10
2018-03-06T21:03:22.149Z,90.80
2018-03-06T21:05:49.734Z,90.80
2018-03-06T21:08:17.251Z,90.50
2018-03-06T21:10:44.815Z,90.40
2018-03-06T21:13:12.332Z,90.40
2018-03-06T21:15:39.855Z,90.80
2018-03-06T21:18:07.421Z,90.80
2018-03-06T21:20:34.971Z,91.00
2018-03-06T21:23:02.535Z,90.90
2018-03-06T21:25:30.067Z,90.70
2018-03-06T21:27:57.607Z,90.90
2018-03-06T21:30:25.165Z,91.10
2018-03-06T21:32:53.528Z,90.70
2018-03-06T21:35:21.245Z,90.70
2018-03-06T21:37:48.843Z,90.60
2018-03-06T21:40:18.116Z,91.80
2018-03-06T21:42:45.642Z,91.50
2018-03-06T21:45:13.226Z,91.30
2018-03-06T21:47:41.692Z,92.00
2018-03-06T21:50:09.247Z,91.30
2018-03-06T21:52:36.762Z,91.10
2018-03-06T21:55:06.927Z,90.50
2018-03-06T21:57:34.446Z,90.50
2018-03-06T22:00:02.016Z,91.00
2018-03-06T22:02:29.545Z,91.20
2018-03-06T22:04:57.284Z,90.90
2018-03-06T22:07:26.045Z,90.70
2018-03-06T22:09:53.573Z,90.70
2018-03-06T22:12:23.078Z,90.90
2018-03-06T22:14:50.609Z,90.90
2018-03-06T22:17:19.402Z,90.80
2018-03-06T22:19:46.931Z,90.50
2018-03-06T22:22:14.478Z,90.90
2018-03-06T22:24:42.018Z,90.50
2018-03-06T22:27:09.573Z,90.70
2018-03-06T22:29:37.968Z,90.90
2018-03-06T22:32:05.569Z,91.10
2018-03-06T22:34:33.094Z,91.10
2018-03-06T22:37:00.625Z,91.40
2018-03-06T22:39:28.163Z,91.40
2018-03-06T22:41:56.661Z,91.20
2018-03-06T22:44:24.982Z,91.00
2018-03-06T22:46:53.485Z,91.00
2018-03-06T22:49:21.051Z,90.90
2018-03-06T22:51:48.578Z,90.90
2018-03-06T22:54:16.129Z,91.00
2018-03-06T22:56:43.650Z,91.00
2018-03-06T22:59:11.187Z,90.80
2018-03-06T23:01:38.745Z,91.00
2018-03-06T23:04:07.041Z,90.90
2018-03-06T23:06:35.346Z,90.70
2018-03-06T23:09:02.867Z,90.60
2018-03-06T23:11:31.196Z,91.20
2018-03-06T23:13:58.718Z,90.90
2018-03-06T23:16:26.762Z,90.80
2018-03-06T23:18:54.282Z,90.80
2018-03-06T23:21:21.811Z,90.60
2018-03-06T23:23:49.350Z,90.70
2018-03-06T23:26:17.690Z,90.90
2018-03-06T23:28:45.337Z,90.50
2018-03-06T23:31:12.901Z,90.50
2018-03-06T23:33:44.189Z,90.40
2018-03-06T23:36:15.399Z,90.50
2018-03-06T23:38:46.276Z,90.40
2018-03-06T23:41:16.627Z,91.00
2018-03-06T23:43:46.281Z,91.00
2018-03-06T23:46:13.856Z,90.90
2018-03-06T23:48:42.187Z,91.10
2018-03-06T23:51:09.785Z,90.90
2018-03-06T23:53:37.350Z,90.70
2018-03-06T23:56:05.906Z,90.70
2018-03-06T23:58:33.468Z,90.90
